sensor_id;sensor_type;location;lat;lon;timestamp;P1;durP1;ratioP1;P2;durP2;ratioP2
11817;SDS011;5966;52.402;5.322;2023-04-15T00:01:54;3.63;;;3.13;;
11817;SDS011;5966;52.402;5.322;2023-04-15T00:04:25;6.57;;;3.23;;
11817;SDS011;5966;52.402;5.322;2023-04-15T00:06:54;5.23;;;3.30;;
11817;SDS011;5966;52.402;5.322;2023-04-15T00:09:22;5.00;;;3.53;;
11817;SDS011;5966;52.402;5.322;2023-04-15T00:11:51;8.10;;;3.50;;
11817;SDS011;5966;52.402;5.322;2023-04-15T00:14:19;4.93;;;3.33;;
11817;SDS011;5966;52.402;5.322;2023-04-15T00:16:47;5.00;;;3.30;;
11817;SDS011;5966;52.402;5.322;2023-04-15T00:19:20;4.97;;;3.30;;
11817;SDS011;5966;52.402;5.322;2023-04-15T00:21:48;6.50;;;3.43;;
11817;SDS011;5966;52.402;5.322;2023-04-15T00:24:16;6.07;;;3.30;;
11817;SDS011;5966;52.402;5.322;2023-04-15T00:26:44;9.07;;;3.63;;
11817;SDS011;5966;52.402;5.322;2023-04-15T00:29:14;5.27;;;3.07;;
11817;SDS011;5966;52.402;5.322;2023-04-15T00:31:42;6.23;;;3.53;;
11817;SDS011;5966;52.402;5.322;2023-04-15T00:34:10;5.57;;;3.60;;
11817;SDS011;5966;52.402;5.322;2023-04-15T00:36:37;5.07;;;3.33;;
11817;SDS011;5966;52.402;5.322;2023-04-15T00:39:05;4.90;;;3.47;;
11817;SDS011;5966;52.402;5.322;2023-04-15T00:41:33;6.00;;;3.37;;
11817;SDS011;5966;52.402;5.322;2023-04-15T00:44:04;6.43;;;3.50;;
11817;SDS011;5966;52.402;5.322;2023-04-15T00:46:35;7.47;;;3.50;;
11817;SDS011;5966;52.402;5.322;2023-04-15T00:49:04;4.30;;;3.10;;
11817;SDS011;5966;52.402;5.322;2023-04-15T00:51:33;5.40;;;3.57;;
11817;SDS011;5966;52.402;5.322;2023-04-15T00:54:02;7.77;;;3.47;;
11817;SDS011;5966;52.402;5.322;2023-04-15T00:56:32;6.43;;;3.17;;
11817;SDS011;5966;52.402;5.322;2023-04-15T00:59:02;5.93;;;3.30;;
11817;SDS011;5966;52.402;5.322;2023-04-15T01:01:32;6.87;;;3.40;;
11817;SDS011;5966;52.402;5.322;2023-04-15T01:04:02;4.67;;;3.10;;
11817;SDS011;5966;52.402;5.322;2023-04-15T01:06:31;4.60;;;3.17;;
11817;SDS011;5966;52.402;5.322;2023-04-15T01:08:59;3.67;;;2.90;;
11817;SDS011;5966;52.402;5.322;2023-04-15T01:11:28;4.53;;;3.27;;
11817;SDS011;5966;52.402;5.322;2023-04-15T01:13:57;4.47;;;3.40;;
11817;SDS011;5966;52.402;5.322;2023-04-15T01:16:25;6.43;;;4.00;;
11817;SDS011;5966;52.402;5.322;2023-04-15T01:18:55;4.37;;;3.57;;
11817;SDS011;5966;52.402;5.322;2023-04-15T01:21:24;5.30;;;3.67;;
11817;SDS011;5966;52.402;5.322;2023-04-15T01:23:52;5.27;;;3.40;;
11817;SDS011;5966;52.402;5.322;2023-04-15T01:26:23;3.97;;;3.50;;
11817;SDS011;5966;52.402;5.322;2023-04-15T01:28:51;5.60;;;3.60;;
11817;SDS011;5966;52.402;5.322;2023-04-15T01:31:20;5.03;;;3.50;;
11817;SDS011;5966;52.402;5.322;2023-04-15T01:33:48;5.40;;;3.50;;
11817;SDS011;5966;52.402;5.322;2023-04-15T01:36:16;6.73;;;3.73;;
11817;SDS011;5966;52.402;5.322;2023-04-15T01:38:44;5.63;;;3.43;;
11817;SDS011;5966;52.402;5.322;2023-04-15T01:41:12;7.10;;;3.67;;
11817;SDS011;5966;52.402;5.322;2023-04-15T01:43:41;6.60;;;3.80;;
11817;SDS011;5966;52.402;5.322;2023-04-15T01:46:09;5.03;;;3.77;;
11817;SDS011;5966;52.402;5.322;2023-04-15T01:48:37;4.33;;;3.33;;
11817;SDS011;5966;52.402;5.322;2023-04-15T01:51:06;5.00;;;3.33;;
11817;SDS011;5966;52.402;5.322;2023-04-15T01:53:34;7.30;;;3.93;;
11817;SDS011;5966;52.402;5.322;2023-04-15T01:56:02;6.00;;;3.80;;
11817;SDS011;5966;52.402;5.322;2023-04-15T01:58:30;4.63;;;3.80;;
11817;SDS011;5966;52.402;5.322;2023-04-15T02:01:00;5.00;;;3.43;;
11817;SDS011;5966;52.402;5.322;2023-04-15T02:03:29;5.13;;;3.80;;
11817;SDS011;5966;52.402;5.322;2023-04-15T02:05:57;7.83;;;4.03;;
11817;SDS011;5966;52.402;5.322;2023-04-15T02:08:26;6.07;;;3.83;;
11817;SDS011;5966;52.402;5.322;2023-04-15T02:10:54;5.80;;;3.57;;
11817;SDS011;5966;52.402;5.322;2023-04-15T02:13:22;6.43;;;3.60;;
11817;SDS011;5966;52.402;5.322;2023-04-15T02:15:49;5.03;;;3.57;;
11817;SDS011;5966;52.402;5.322;2023-04-15T02:18:20;4.87;;;3.40;;
11817;SDS011;5966;52.402;5.322;2023-04-15T02:20:49;10.07;;;3.67;;
11817;SDS011;5966;52.402;5.322;2023-04-15T02:23:18;7.90;;;4.13;;
11817;SDS011;5966;52.402;5.322;2023-04-15T02:25:46;5.57;;;3.90;;
11817;SDS011;5966;52.402;5.322;2023-04-15T02:28:19;6.90;;;3.57;;
11817;SDS011;5966;52.402;5.322;2023-04-15T02:30:47;5.27;;;3.23;;
11817;SDS011;5966;52.402;5.322;2023-04-15T02:33:20;4.43;;;3.83;;
11817;SDS011;5966;52.402;5.322;2023-04-15T02:35:47;7.33;;;4.07;;
11817;SDS011;5966;52.402;5.322;2023-04-15T02:38:16;13.40;;;4.07;;
11817;SDS011;5966;52.402;5.322;2023-04-15T02:40:44;5.83;;;3.97;;
11817;SDS011;5966;52.402;5.322;2023-04-15T02:43:14;5.37;;;3.77;;
11817;SDS011;5966;52.402;5.322;2023-04-15T02:45:44;5.67;;;4.00;;
11817;SDS011;5966;52.402;5.322;2023-04-15T02:48:12;7.37;;;3.60;;
11817;SDS011;5966;52.402;5.322;2023-04-15T02:50:44;5.90;;;3.73;;
11817;SDS011;5966;52.402;5.322;2023-04-15T02:53:13;6.30;;;3.83;;
11817;SDS011;5966;52.402;5.322;2023-04-15T02:55:41;8.63;;;4.13;;
11817;SDS011;5966;52.402;5.322;2023-04-15T02:58:09;6.50;;;4.23;;
11817;SDS011;5966;52.402;5.322;2023-04-15T03:00:37;5.23;;;3.73;;
11817;SDS011;5966;52.402;5.322;2023-04-15T03:03:05;6.63;;;3.93;;
11817;SDS011;5966;52.402;5.322;2023-04-15T03:05:33;6.73;;;4.23;;
11817;SDS011;5966;52.402;5.322;2023-04-15T03:08:05;6.27;;;4.30;;
11817;SDS011;5966;52.402;5.322;2023-04-15T03:10:33;8.23;;;4.20;;
11817;SDS011;5966;52.402;5.322;2023-04-15T03:13:01;6.57;;;3.77;;
11817;SDS011;5966;52.402;5.322;2023-04-15T03:15:29;5.80;;;3.97;;
11817;SDS011;5966;52.402;5.322;2023-04-15T03:17:58;4.70;;;3.73;;
11817;SDS011;5966;52.402;5.322;2023-04-15T03:20:26;5.57;;;4.27;;
11817;SDS011;5966;52.402;5.322;2023-04-15T03:22:54;6.40;;;4.00;;
11817;SDS011;5966;52.402;5.322;2023-04-15T03:25:24;6.07;;;4.40;;
11817;SDS011;5966;52.402;5.322;2023-04-15T03:27:52;6.07;;;4.30;;
11817;SDS011;5966;52.402;5.322;2023-04-15T03:30:20;4.93;;;4.10;;
11817;SDS011;5966;52.402;5.322;2023-04-15T03:32:48;4.77;;;4.23;;
11817;SDS011;5966;52.402;5.322;2023-04-15T03:35:16;5.17;;;4.17;;
11817;SDS011;5966;52.402;5.322;2023-04-15T03:37:44;5.23;;;3.90;;
11817;SDS011;5966;52.402;5.322;2023-04-15T03:40:14;4.77;;;4.07;;
11817;SDS011;5966;52.402;5.322;2023-04-15T03:42:43;6.03;;;4.20;;
11817;SDS011;5966;52.402;5.322;2023-04-15T03:45:11;7.60;;;4.43;;
11817;SDS011;5966;52.402;5.322;2023-04-15T03:47:39;6.47;;;4.37;;
11817;SDS011;5966;52.402;5.322;2023-04-15T03:50:07;4.63;;;4.23;;
11817;SDS011;5966;52.402;5.322;2023-04-15T03:52:35;7.00;;;4.17;;
11817;SDS011;5966;52.402;5.322;2023-04-15T03:55:03;6.90;;;4.37;;
11817;SDS011;5966;52.402;5.322;2023-04-15T03:57:32;5.20;;;4.30;;
11817;SDS011;5966;52.402;5.322;2023-04-15T04:00:05;5.87;;;4.37;;
11817;SDS011;5966;52.402;5.322;2023-04-15T04:02:35;7.00;;;4.70;;
11817;SDS011;5966;52.402;5.322;2023-04-15T04:05:03;6.27;;;4.50;;
11817;SDS011;5966;52.402;5.322;2023-04-15T04:07:31;6.97;;;4.50;;
11817;SDS011;5966;52.402;5.322;2023-04-15T04:09:59;6.83;;;4.27;;
11817;SDS011;5966;52.402;5.322;2023-04-15T04:12:28;6.97;;;4.57;;
11817;SDS011;5966;52.402;5.322;2023-04-15T04:14:56;5.17;;;4.40;;
11817;SDS011;5966;52.402;5.322;2023-04-15T04:17:26;6.43;;;4.53;;
11817;SDS011;5966;52.402;5.322;2023-04-15T04:19:54;6.63;;;5.43;;
11817;SDS011;5966;52.402;5.322;2023-04-15T04:22:22;6.30;;;4.53;;
11817;SDS011;5966;52.402;5.322;2023-04-15T04:24:50;7.10;;;5.30;;
11817;SDS011;5966;52.402;5.322;2023-04-15T04:27:18;8.07;;;5.30;;
11817;SDS011;5966;52.402;5.322;2023-04-15T04:29:46;5.97;;;5.10;;
11817;SDS011;5966;52.402;5.322;2023-04-15T04:32:15;7.43;;;5.27;;
11817;SDS011;5966;52.402;5.322;2023-04-15T04:34:44;7.23;;;5.37;;
11817;SDS011;5966;52.402;5.322;2023-04-15T04:37:13;9.50;;;5.93;;
11817;SDS011;5966;52.402;5.322;2023-04-15T04:39:41;7.07;;;5.27;;
11817;SDS011;5966;52.402;5.322;2023-04-15T04:42:09;9.13;;;5.43;;
11817;SDS011;5966;52.402;5.322;2023-04-15T04:44:37;8.90;;;5.77;;
11817;SDS011;5966;52.402;5.322;2023-04-15T04:47:05;6.23;;;5.30;;
11817;SDS011;5966;52.402;5.322;2023-04-15T04:49:33;9.17;;;6.60;;
11817;SDS011;5966;52.402;5.322;2023-04-15T04:52:03;9.37;;;5.80;;
11817;SDS011;5966;52.402;5.322;2023-04-15T04:54:31;8.23;;;5.70;;
11817;SDS011;5966;52.402;5.322;2023-04-15T04:56:59;9.13;;;6.03;;
11817;SDS011;5966;52.402;5.322;2023-04-15T04:59:28;7.87;;;6.20;;
11817;SDS011;5966;52.402;5.322;2023-04-15T05:01:56;8.47;;;6.13;;
11817;SDS011;5966;52.402;5.322;2023-04-15T05:04:24;7.23;;;5.80;;
11817;SDS011;5966;52.402;5.322;2023-04-15T05:06:52;8.53;;;6.60;;
11817;SDS011;5966;52.402;5.322;2023-04-15T05:09:21;7.33;;;6.43;;
11817;SDS011;5966;52.402;5.322;2023-04-15T05:11:49;7.50;;;6.07;;
11817;SDS011;5966;52.402;5.322;2023-04-15T05:14:17;7.97;;;6.70;;
11817;SDS011;5966;52.402;5.322;2023-04-15T05:16:48;10.87;;;7.07;;
11817;SDS011;5966;52.402;5.322;2023-04-15T05:19:16;7.57;;;6.20;;
11817;SDS011;5966;52.402;5.322;2023-04-15T05:21:44;9.93;;;6.37;;
11817;SDS011;5966;52.402;5.322;2023-04-15T05:24:12;10.87;;;6.90;;
11817;SDS011;5966;52.402;5.322;2023-04-15T05:26:41;8.37;;;6.33;;
11817;SDS011;5966;52.402;5.322;2023-04-15T05:29:09;8.50;;;6.93;;
11817;SDS011;5966;52.402;5.322;2023-04-15T05:31:37;7.17;;;6.47;;
11817;SDS011;5966;52.402;5.322;2023-04-15T05:34:05;10.23;;;6.47;;
11817;SDS011;5966;52.402;5.322;2023-04-15T05:36:33;9.03;;;6.67;;
11817;SDS011;5966;52.402;5.322;2023-04-15T05:39:01;9.17;;;6.43;;
11817;SDS011;5966;52.402;5.322;2023-04-15T05:41:30;7.30;;;6.60;;
11817;SDS011;5966;52.402;5.322;2023-04-15T05:43:59;7.97;;;6.80;;
11817;SDS011;5966;52.402;5.322;2023-04-15T05:46:27;7.00;;;6.30;;
11817;SDS011;5966;52.402;5.322;2023-04-15T05:48:55;8.10;;;6.30;;
11817;SDS011;5966;52.402;5.322;2023-04-15T05:51:23;9.77;;;6.97;;
11817;SDS011;5966;52.402;5.322;2023-04-15T05:53:51;11.40;;;7.17;;
11817;SDS011;5966;52.402;5.322;2023-04-15T05:56:19;7.60;;;6.60;;
11817;SDS011;5966;52.402;5.322;2023-04-15T05:58:47;7.90;;;6.70;;
11817;SDS011;5966;52.402;5.322;2023-04-15T06:01:20;6.87;;;6.17;;
11817;SDS011;5966;52.402;5.322;2023-04-15T06:03:48;7.00;;;6.17;;
11817;SDS011;5966;52.402;5.322;2023-04-15T06:06:16;7.60;;;6.80;;
11817;SDS011;5966;52.402;5.322;2023-04-15T06:08:45;8.07;;;6.77;;
11817;SDS011;5966;52.402;5.322;2023-04-15T06:11:13;8.50;;;6.67;;
11817;SDS011;5966;52.402;5.322;2023-04-15T06:13:42;8.97;;;6.80;;
11817;SDS011;5966;52.402;5.322;2023-04-15T06:16:09;7.17;;;6.20;;
11817;SDS011;5966;52.402;5.322;2023-04-15T06:18:39;10.80;;;6.77;;
11817;SDS011;5966;52.402;5.322;2023-04-15T06:21:07;8.90;;;6.13;;
11817;SDS011;5966;52.402;5.322;2023-04-15T06:23:35;8.37;;;6.83;;
11817;SDS011;5966;52.402;5.322;2023-04-15T06:26:03;7.90;;;6.70;;
11817;SDS011;5966;52.402;5.322;2023-04-15T06:28:31;7.23;;;6.23;;
11817;SDS011;5966;52.402;5.322;2023-04-15T06:30:59;7.23;;;6.43;;
11817;SDS011;5966;52.402;5.322;2023-04-15T06:33:27;9.07;;;6.60;;
11817;SDS011;5966;52.402;5.322;2023-04-15T06:35:57;8.07;;;6.30;;
11817;SDS011;5966;52.402;5.322;2023-04-15T06:38:25;7.47;;;6.33;;
11817;SDS011;5966;52.402;5.322;2023-04-15T06:40:53;9.67;;;6.70;;
11817;SDS011;5966;52.402;5.322;2023-04-15T06:43:20;7.73;;;6.70;;
11817;SDS011;5966;52.402;5.322;2023-04-15T06:45:49;8.37;;;6.57;;
11817;SDS011;5966;52.402;5.322;2023-04-15T06:48:17;9.93;;;6.60;;
11817;SDS011;5966;52.402;5.322;2023-04-15T06:50:45;12.80;;;6.90;;
11817;SDS011;5966;52.402;5.322;2023-04-15T06:53:14;7.73;;;6.50;;
11817;SDS011;5966;52.402;5.322;2023-04-15T06:55:42;8.37;;;6.83;;
11817;SDS011;5966;52.402;5.322;2023-04-15T06:58:10;9.97;;;6.87;;
11817;SDS011;5966;52.402;5.322;2023-04-15T07:00:38;8.83;;;7.37;;
11817;SDS011;5966;52.402;5.322;2023-04-15T07:03:06;10.93;;;7.40;;
11817;SDS011;5966;52.402;5.322;2023-04-15T07:05:36;7.70;;;6.80;;
11817;SDS011;5966;52.402;5.322;2023-04-15T07:08:04;8.30;;;6.83;;
11817;SDS011;5966;52.402;5.322;2023-04-15T07:10:34;8.63;;;7.10;;
11817;SDS011;5966;52.402;5.322;2023-04-15T07:13:02;8.30;;;6.37;;
11817;SDS011;5966;52.402;5.322;2023-04-15T07:15:30;7.20;;;6.50;;
11817;SDS011;5966;52.402;5.322;2023-04-15T07:17:58;7.40;;;6.37;;
11817;SDS011;5966;52.402;5.322;2023-04-15T07:20:27;6.87;;;6.17;;
11817;SDS011;5966;52.402;5.322;2023-04-15T07:22:55;6.87;;;5.77;;
11817;SDS011;5966;52.402;5.322;2023-04-15T07:25:23;7.60;;;5.40;;
11817;SDS011;5966;52.402;5.322;2023-04-15T07:27:53;7.13;;;5.93;;
11817;SDS011;5966;52.402;5.322;2023-04-15T07:30:21;5.63;;;4.97;;
11817;SDS011;5966;52.402;5.322;2023-04-15T07:32:49;6.20;;;5.57;;
11817;SDS011;5966;52.402;5.322;2023-04-15T07:35:17;6.67;;;4.73;;
11817;SDS011;5966;52.402;5.322;2023-04-15T07:37:46;6.43;;;5.07;;
11817;SDS011;5966;52.402;5.322;2023-04-15T07:40:14;7.93;;;4.47;;
11817;SDS011;5966;52.402;5.322;2023-04-15T07:42:42;5.53;;;4.50;;
11817;SDS011;5966;52.402;5.322;2023-04-15T07:45:12;5.47;;;4.27;;
11817;SDS011;5966;52.402;5.322;2023-04-15T07:47:40;4.93;;;4.43;;
11817;SDS011;5966;52.402;5.322;2023-04-15T07:50:08;4.87;;;4.40;;
11817;SDS011;5966;52.402;5.322;2023-04-15T07:52:37;5.30;;;4.30;;
11817;SDS011;5966;52.402;5.322;2023-04-15T07:55:05;5.43;;;4.70;;
11817;SDS011;5966;52.402;5.322;2023-04-15T07:57:34;6.87;;;4.60;;
11817;SDS011;5966;52.402;5.322;2023-04-15T08:00:03;5.70;;;5.10;;
11817;SDS011;5966;52.402;5.322;2023-04-15T08:02:34;6.80;;;4.73;;
11817;SDS011;5966;52.402;5.322;2023-04-15T08:05:05;6.50;;;5.30;;
11817;SDS011;5966;52.402;5.322;2023-04-15T08:07:34;7.27;;;5.37;;
11817;SDS011;5966;52.402;5.322;2023-04-15T08:10:03;9.00;;;5.97;;
11817;SDS011;5966;52.402;5.322;2023-04-15T08:12:31;8.33;;;6.30;;
11817;SDS011;5966;52.402;5.322;2023-04-15T08:14:59;10.30;;;6.37;;
11817;SDS011;5966;52.402;5.322;2023-04-15T08:17:28;9.40;;;6.50;;
11817;SDS011;5966;52.402;5.322;2023-04-15T08:19:57;8.50;;;6.00;;
11817;SDS011;5966;52.402;5.322;2023-04-15T08:22:25;11.07;;;6.70;;
11817;SDS011;5966;52.402;5.322;2023-04-15T08:24:53;12.63;;;6.73;;
11817;SDS011;5966;52.402;5.322;2023-04-15T08:27:21;9.53;;;6.30;;
11817;SDS011;5966;52.402;5.322;2023-04-15T08:29:49;9.60;;;6.13;;
11817;SDS011;5966;52.402;5.322;2023-04-15T08:32:17;9.40;;;6.20;;
11817;SDS011;5966;52.402;5.322;2023-04-15T08:34:45;9.27;;;6.53;;
11817;SDS011;5966;52.402;5.322;2023-04-15T08:37:15;10.47;;;5.23;;
11817;SDS011;5966;52.402;5.322;2023-04-15T08:39:43;5.07;;;4.30;;
11817;SDS011;5966;52.402;5.322;2023-04-15T08:42:15;4.23;;;3.47;;
11817;SDS011;5966;52.402;5.322;2023-04-15T08:44:43;4.70;;;3.30;;
11817;SDS011;5966;52.402;5.322;2023-04-15T08:47:14;2.90;;;2.70;;
11817;SDS011;5966;52.402;5.322;2023-04-15T08:49:47;4.40;;;2.90;;
11817;SDS011;5966;52.402;5.322;2023-04-15T08:52:20;3.40;;;3.10;;
11817;SDS011;5966;52.402;5.322;2023-04-15T08:54:48;3.13;;;2.80;;
11817;SDS011;5966;52.402;5.322;2023-04-15T08:57:17;4.77;;;2.87;;
11817;SDS011;5966;52.402;5.322;2023-04-15T08:59:46;3.70;;;3.40;;
11817;SDS011;5966;52.402;5.322;2023-04-15T09:02:14;3.70;;;3.17;;
11817;SDS011;5966;52.402;5.322;2023-04-15T09:04:43;4.20;;;3.20;;
11817;SDS011;5966;52.402;5.322;2023-04-15T09:07:11;4.57;;;3.60;;
11817;SDS011;5966;52.402;5.322;2023-04-15T09:09:40;3.43;;;3.13;;
11817;SDS011;5966;52.402;5.322;2023-04-15T09:12:08;4.97;;;3.70;;
11817;SDS011;5966;52.402;5.322;2023-04-15T09:14:37;4.47;;;3.80;;
11817;SDS011;5966;52.402;5.322;2023-04-15T09:17:08;4.10;;;3.70;;
11817;SDS011;5966;52.402;5.322;2023-04-15T09:19:37;5.03;;;3.57;;
11817;SDS011;5966;52.402;5.322;2023-04-15T09:22:05;4.00;;;3.50;;
11817;SDS011;5966;52.402;5.322;2023-04-15T09:24:34;4.97;;;3.50;;
11817;SDS011;5966;52.402;5.322;2023-04-15T09:27:05;4.60;;;3.70;;
11817;SDS011;5966;52.402;5.322;2023-04-15T09:29:33;6.17;;;4.17;;
11817;SDS011;5966;52.402;5.322;2023-04-15T09:32:08;4.83;;;4.10;;
11817;SDS011;5966;52.402;5.322;2023-04-15T09:34:37;6.20;;;4.60;;
11817;SDS011;5966;52.402;5.322;2023-04-15T09:37:05;4.80;;;4.07;;
11817;SDS011;5966;52.402;5.322;2023-04-15T09:39:46;5.90;;;4.20;;
11817;SDS011;5966;52.402;5.322;2023-04-15T09:42:16;4.97;;;4.47;;
11817;SDS011;5966;52.402;5.322;2023-04-15T09:44:49;5.00;;;4.50;;
11817;SDS011;5966;52.402;5.322;2023-04-15T09:47:27;5.90;;;4.77;;
11817;SDS011;5966;52.402;5.322;2023-04-15T09:49:56;5.00;;;4.33;;
11817;SDS011;5966;52.402;5.322;2023-04-15T09:52:24;7.03;;;4.57;;
11817;SDS011;5966;52.402;5.322;2023-04-15T09:54:57;6.13;;;4.43;;
11817;SDS011;5966;52.402;5.322;2023-04-15T09:57:34;6.60;;;5.20;;
11817;SDS011;5966;52.402;5.322;2023-04-15T10:00:02;5.07;;;4.57;;
11817;SDS011;5966;52.402;5.322;2023-04-15T10:02:31;6.83;;;4.73;;
11817;SDS011;5966;52.402;5.322;2023-04-15T10:05:00;6.67;;;5.00;;
11817;SDS011;5966;52.402;5.322;2023-04-15T10:07:29;5.07;;;4.53;;
11817;SDS011;5966;52.402;5.322;2023-04-15T10:09:57;6.13;;;4.93;;
11817;SDS011;5966;52.402;5.322;2023-04-15T10:12:27;4.60;;;4.20;;
11817;SDS011;5966;52.402;5.322;2023-04-15T10:14:57;6.37;;;4.93;;
11817;SDS011;5966;52.402;5.322;2023-04-15T10:17:27;6.22;;;4.75;;
11817;SDS011;5966;52.402;5.322;2023-04-15T10:19:59;5.70;;;5.10;;
11817;SDS011;5966;52.402;5.322;2023-04-15T10:22:27;5.78;;;5.18;;
11817;SDS011;5966;52.402;5.322;2023-04-15T10:24:56;5.73;;;5.13;;
11817;SDS011;5966;52.402;5.322;2023-04-15T10:27:26;6.50;;;5.50;;
11817;SDS011;5966;52.402;5.322;2023-04-15T10:29:54;5.33;;;4.40;;
11817;SDS011;5966;52.402;5.322;2023-04-15T10:32:26;5.67;;;4.67;;
11817;SDS011;5966;52.402;5.322;2023-04-15T10:34:54;5.97;;;3.20;;
11817;SDS011;5966;52.402;5.322;2023-04-15T10:37:32;2.80;;;2.10;;
11817;SDS011;5966;52.402;5.322;2023-04-15T10:40:07;2.30;;;2.10;;
11817;SDS011;5966;52.402;5.322;2023-04-15T10:42:50;2.30;;;2.10;;
11817;SDS011;5966;52.402;5.322;2023-04-15T10:45:20;3.13;;;2.17;;
11817;SDS011;5966;52.402;5.322;2023-04-15T10:47:50;3.73;;;2.53;;
11817;SDS011;5966;52.402;5.322;2023-04-15T10:50:21;4.90;;;2.70;;
11817;SDS011;5966;52.402;5.322;2023-04-15T10:52:50;3.53;;;2.67;;
11817;SDS011;5966;52.402;5.322;2023-04-15T10:55:19;3.50;;;2.77;;
11817;SDS011;5966;52.402;5.322;2023-04-15T10:57:50;3.07;;;2.77;;
11817;SDS011;5966;52.402;5.322;2023-04-15T11:00:23;3.57;;;2.77;;
11817;SDS011;5966;52.402;5.322;2023-04-15T11:02:53;3.60;;;2.57;;
11817;SDS011;5966;52.402;5.322;2023-04-15T11:05:22;4.23;;;2.80;;
11817;SDS011;5966;52.402;5.322;2023-04-15T11:08:17;3.57;;;2.87;;
11817;SDS011;5966;52.402;5.322;2023-04-15T11:10:49;4.37;;;2.80;;
11817;SDS011;5966;52.402;5.322;2023-04-15T11:16:01;4.77;;;3.13;;
11817;SDS011;5966;52.402;5.322;2023-04-15T11:18:30;3.50;;;3.20;;
11817;SDS011;5966;52.402;5.322;2023-04-15T11:21:00;3.33;;;2.70;;
11817;SDS011;5966;52.402;5.322;2023-04-15T11:23:30;6.00;;;2.80;;
11817;SDS011;5966;52.402;5.322;2023-04-15T11:26:00;2.80;;;2.50;;
11817;SDS011;5966;52.402;5.322;2023-04-15T11:28:31;3.73;;;2.57;;
11817;SDS011;5966;52.402;5.322;2023-04-15T11:31:08;4.37;;;2.70;;
11817;SDS011;5966;52.402;5.322;2023-04-15T11:33:44;3.57;;;2.47;;
11817;SDS011;5966;52.402;5.322;2023-04-15T11:36:13;3.40;;;2.63;;
11817;SDS011;5966;52.402;5.322;2023-04-15T11:38:41;3.77;;;2.50;;
11817;SDS011;5966;52.402;5.322;2023-04-15T11:41:11;3.37;;;2.20;;
11817;SDS011;5966;52.402;5.322;2023-04-15T11:43:39;3.57;;;2.43;;
11817;SDS011;5966;52.402;5.322;2023-04-15T11:46:08;4.23;;;2.60;;
11817;SDS011;5966;52.402;5.322;2023-04-15T11:48:40;2.60;;;2.23;;
11817;SDS011;5966;52.402;5.322;2023-04-15T11:51:09;3.60;;;2.57;;
11817;SDS011;5966;52.402;5.322;2023-04-15T11:53:39;3.40;;;2.53;;
11817;SDS011;5966;52.402;5.322;2023-04-15T11:56:08;4.60;;;2.97;;
11817;SDS011;5966;52.402;5.322;2023-04-15T11:58:38;2.93;;;2.60;;
11817;SDS011;5966;52.402;5.322;2023-04-15T12:01:09;3.73;;;2.50;;
11817;SDS011;5966;52.402;5.322;2023-04-15T12:03:37;3.23;;;2.40;;
11817;SDS011;5966;52.402;5.322;2023-04-15T12:06:14;2.03;;;1.83;;
11817;SDS011;5966;52.402;5.322;2023-04-15T12:08:48;2.70;;;1.97;;
11817;SDS011;5966;52.402;5.322;2023-04-15T12:11:27;2.53;;;2.17;;
11817;SDS011;5966;52.402;5.322;2023-04-15T12:14:02;3.10;;;2.40;;
11817;SDS011;5966;52.402;5.322;2023-04-15T12:16:34;3.00;;;2.63;;
11817;SDS011;5966;52.402;5.322;2023-04-15T12:19:16;3.23;;;2.23;;
11817;SDS011;5966;52.402;5.322;2023-04-15T12:21:48;3.50;;;2.40;;
11817;SDS011;5966;52.402;5.322;2023-04-15T12:24:19;3.07;;;2.00;;
11817;SDS011;5966;52.402;5.322;2023-04-15T12:26:48;2.80;;;2.20;;
11817;SDS011;5966;52.402;5.322;2023-04-15T12:29:18;4.37;;;2.60;;
11817;SDS011;5966;52.402;5.322;2023-04-15T12:31:49;5.63;;;2.47;;
11817;SDS011;5966;52.402;5.322;2023-04-15T12:34:18;3.43;;;2.10;;
11817;SDS011;5966;52.402;5.322;2023-04-15T12:36:53;2.83;;;1.90;;
11817;SDS011;5966;52.402;5.322;2023-04-15T12:39:22;3.43;;;1.70;;
11817;SDS011;5966;52.402;5.322;2023-04-15T12:41:52;2.40;;;2.00;;
11817;SDS011;5966;52.402;5.322;2023-04-15T12:44:21;3.43;;;1.83;;
11817;SDS011;5966;52.402;5.322;2023-04-15T12:46:51;3.67;;;1.80;;
11817;SDS011;5966;52.402;5.322;2023-04-15T12:49:19;2.53;;;2.00;;
11817;SDS011;5966;52.402;5.322;2023-04-15T12:51:48;2.20;;;1.80;;
11817;SDS011;5966;52.402;5.322;2023-04-15T12:54:18;3.33;;;1.87;;
11817;SDS011;5966;52.402;5.322;2023-04-15T12:56:47;1.83;;;1.70;;
11817;SDS011;5966;52.402;5.322;2023-04-15T12:59:16;2.30;;;1.70;;
11817;SDS011;5966;52.402;5.322;2023-04-15T13:01:44;3.83;;;1.63;;
11817;SDS011;5966;52.402;5.322;2023-04-15T13:04:15;2.57;;;1.70;;
11817;SDS011;5966;52.402;5.322;2023-04-15T13:06:43;3.90;;;1.63;;
11817;SDS011;5966;52.402;5.322;2023-04-15T13:09:11;1.40;;;1.30;;
11817;SDS011;5966;52.402;5.322;2023-04-15T13:11:39;2.37;;;1.47;;
11817;SDS011;5966;52.402;5.322;2023-04-15T13:14:08;1.97;;;1.17;;
11817;SDS011;5966;52.402;5.322;2023-04-15T13:16:36;1.73;;;1.27;;
11817;SDS011;5966;52.402;5.322;2023-04-15T13:19:05;2.10;;;1.00;;
11817;SDS011;5966;52.402;5.322;2023-04-15T13:21:34;2.37;;;1.37;;
11817;SDS011;5966;52.402;5.322;2023-04-15T13:24:02;1.73;;;1.00;;
11817;SDS011;5966;52.402;5.322;2023-04-15T13:26:32;1.13;;;1.03;;
11817;SDS011;5966;52.402;5.322;2023-04-15T13:29:00;2.13;;;1.30;;
11817;SDS011;5966;52.402;5.322;2023-04-15T13:31:28;2.97;;;1.40;;
11817;SDS011;5966;52.402;5.322;2023-04-15T13:33:56;2.40;;;1.47;;
11817;SDS011;5966;52.402;5.322;2023-04-15T13:36:24;3.33;;;1.30;;
11817;SDS011;5966;52.402;5.322;2023-04-15T13:38:54;3.70;;;2.00;;
11817;SDS011;5966;52.402;5.322;2023-04-15T13:41:23;1.80;;;1.33;;
11817;SDS011;5966;52.402;5.322;2023-04-15T13:43:51;3.20;;;1.50;;
11817;SDS011;5966;52.402;5.322;2023-04-15T13:46:19;1.50;;;1.40;;
11817;SDS011;5966;52.402;5.322;2023-04-15T13:48:47;1.60;;;1.10;;
11817;SDS011;5966;52.402;5.322;2023-04-15T13:51:15;2.67;;;1.23;;
11817;SDS011;5966;52.402;5.322;2023-04-15T13:53:43;3.53;;;1.30;;
11817;SDS011;5966;52.402;5.322;2023-04-15T13:56:12;2.77;;;1.23;;
11817;SDS011;5966;52.402;5.322;2023-04-15T13:58:40;4.17;;;1.23;;
11817;SDS011;5966;52.402;5.322;2023-04-15T14:01:08;4.13;;;0.90;;
11817;SDS011;5966;52.402;5.322;2023-04-15T14:03:36;4.13;;;1.40;;
11817;SDS011;5966;52.402;5.322;2023-04-15T14:06:05;4.00;;;1.33;;
11817;SDS011;5966;52.402;5.322;2023-04-15T14:08:33;3.60;;;1.23;;
11817;SDS011;5966;52.402;5.322;2023-04-15T14:11:01;5.93;;;1.70;;
11817;SDS011;5966;52.402;5.322;2023-04-15T14:13:31;3.73;;;1.40;;
11817;SDS011;5966;52.402;5.322;2023-04-15T14:15:58;5.43;;;1.17;;
11817;SDS011;5966;52.402;5.322;2023-04-15T14:18:26;1.90;;;0.97;;
11817;SDS011;5966;52.402;5.322;2023-04-15T14:20:55;1.57;;;0.87;;
11817;SDS011;5966;52.402;5.322;2023-04-15T14:23:23;3.57;;;0.90;;
11817;SDS011;5966;52.402;5.322;2023-04-15T14:25:51;3.20;;;1.20;;
11817;SDS011;5966;52.402;5.322;2023-04-15T14:28:19;2.17;;;1.00;;
11817;SDS011;5966;52.402;5.322;2023-04-15T14:30:49;3.73;;;1.20;;
11817;SDS011;5966;52.402;5.322;2023-04-15T14:33:17;5.80;;;1.67;;
11817;SDS011;5966;52.402;5.322;2023-04-15T14:35:45;6.33;;;1.37;;
11817;SDS011;5966;52.402;5.322;2023-04-15T14:38:13;4.37;;;0.97;;
11817;SDS011;5966;52.402;5.322;2023-04-15T14:40:42;4.90;;;1.33;;
11817;SDS011;5966;52.402;5.322;2023-04-15T14:43:10;6.43;;;1.03;;
11817;SDS011;5966;52.402;5.322;2023-04-15T14:45:38;3.83;;;1.27;;
11817;SDS011;5966;52.402;5.322;2023-04-15T14:48:11;3.40;;;1.00;;
11817;SDS011;5966;52.402;5.322;2023-04-15T14:50:40;5.63;;;1.13;;
11817;SDS011;5966;52.402;5.322;2023-04-15T14:53:08;3.63;;;1.00;;
11817;SDS011;5966;52.402;5.322;2023-04-15T14:55:36;3.87;;;1.13;;
11817;SDS011;5966;52.402;5.322;2023-04-15T14:58:04;4.33;;;1.20;;
11817;SDS011;5966;52.402;5.322;2023-04-15T15:00:33;2.17;;;1.27;;
11817;SDS011;5966;52.402;5.322;2023-04-15T15:03:04;4.03;;;1.00;;
11817;SDS011;5966;52.402;5.322;2023-04-15T15:05:39;7.77;;;1.97;;
11817;SDS011;5966;52.402;5.322;2023-04-15T15:08:07;5.13;;;1.43;;
11817;SDS011;5966;52.402;5.322;2023-04-15T15:10:36;4.80;;;1.40;;
11817;SDS011;5966;52.402;5.322;2023-04-15T15:13:15;6.17;;;1.27;;
11817;SDS011;5966;52.402;5.322;2023-04-15T15:15:43;5.37;;;1.30;;